Price, Utah
Current Conditions -  °F | °C
As of 7:53 AM on Friday 24 Oct 2014 (Local Time) from KPUC Reporting Station
Clear Clear  
Wind Chill: 38°   Ceiling: Unl
Heat Index: 42°   Visibility: 10mi
Dew Point: 32°   Wind: 6mph
Humidity: 67%   Direction: 30°NNE
Pressure: 30.29"   Gusts: NA
Location:  39.6°N, 110.81°W
Report Text: KPUC 241353Z AUTO 03005KT 10SM CLR 06/00 A3029 RMK AO2 SLP251 T00560000 TSNO
Loading
Personal Weather Stations






























Interactive Weather Map New forecast layout! Learn more

10-Day Weather Forecast

Advertisements
Track Severe Weather on mobile